createdAt,value
2023-02-18T00:01:13.017Z,99410.84
2023-02-18T00:03:42.859Z,99400.91
2023-02-18T00:06:23.794Z,99408.47
2023-02-18T00:08:51.365Z,99413.34
2023-02-18T00:11:20.830Z,99414.03
2023-02-18T00:13:52.335Z,99406.22
2023-02-18T00:16:19.357Z,99408.88
2023-02-18T00:18:46.165Z,99397.44
2023-02-18T00:21:12.930Z,99395.50
2023-02-18T00:23:43.991Z,99374.94
2023-02-18T00:26:16.440Z,99393.13
2023-02-18T00:28:43.590Z,99379.56
2023-02-18T00:31:15.985Z,99376.50
2023-02-18T00:33:42.630Z,99376.50
2023-02-18T00:36:15.279Z,99373.97
2023-02-18T00:38:49.996Z,99378.19
2023-02-18T00:41:17.678Z,99363.91
2023-02-18T00:43:44.480Z,99371.75
2023-02-18T00:46:14.429Z,99374.25
2023-02-18T00:48:44.516Z,99358.91
2023-02-18T00:51:14.418Z,99363.75
2023-02-18T00:53:45.032Z,99361.56
2023-02-18T00:56:15.294Z,99372.03
2023-02-18T00:58:44.861Z,99365.28
2023-02-18T01:01:18.133Z,99356.38
2023-02-18T01:03:45.149Z,99358.47
2023-02-18T01:06:14.931Z,99365.59
2023-02-18T01:08:46.688Z,99359.44
2023-02-18T01:11:15.238Z,99336.97
2023-02-18T01:13:43.690Z,99343.81
2023-02-18T01:16:13.212Z,99362.94
2023-02-18T01:18:40.770Z,99364.06
2023-02-18T01:21:08.970Z,99358.63
2023-02-18T01:23:40.154Z,99351.91
2023-02-18T01:26:07.478Z,99347.44
2023-02-18T01:28:34.451Z,99356.25
2023-02-18T01:31:09.723Z,99351.34
2023-02-18T01:33:36.828Z,99342.16
2023-02-18T01:36:04.078Z,99350.78
2023-02-18T01:38:30.643Z,99347.16
2023-02-18T01:40:57.220Z,99345.19
2023-02-18T01:43:24.119Z,99344.63
2023-02-18T01:46:18.317Z,99350.94
2023-02-18T01:48:51.633Z,99345.34
2023-02-18T01:51:23.828Z,99335.03
2023-02-18T01:54:21.574Z,99344.22
2023-02-18T01:56:53.726Z,99337.97
2023-02-18T01:59:31.801Z,99346.47
2023-02-18T02:01:58.737Z,99341.28
2023-02-18T02:04:25.835Z,99338.22
2023-02-18T02:06:52.374Z,99337.13
2023-02-18T02:09:22.408Z,99317.00
2023-02-18T02:12:01.808Z,99329.28
2023-02-18T02:15:07.128Z,99323.69
2023-02-18T02:17:33.548Z,99323.41
2023-02-18T02:20:24.966Z,99328.16
2023-02-18T02:23:05.538Z,99325.38
2023-02-18T02:26:09.785Z,99329.44
2023-02-18T02:28:47.641Z,99315.59
2023-02-18T02:31:23.133Z,99327.34
2023-02-18T02:34:19.551Z,99313.06
2023-02-18T02:37:10.425Z,99315.59
2023-02-18T02:39:57.626Z,99314.19
2023-02-18T02:42:38.673Z,99301.09
2023-02-18T02:45:17.766Z,99304.31
2023-02-18T02:48:19.132Z,99307.22
2023-02-18T02:51:15.143Z,99299.81
2023-02-18T02:53:43.513Z,99277.78
2023-02-18T02:56:19.255Z,99290.22
2023-02-18T02:58:54.747Z,99292.44
2023-02-18T03:01:30.581Z,99296.63
2023-02-18T03:04:09.297Z,99293.84
2023-02-18T03:06:38.766Z,99299.97
2023-02-18T03:09:21.849Z,99281.25
2023-02-18T03:12:22.358Z,99297.03
2023-02-18T03:15:11.216Z,99285.88
2023-02-18T03:17:45.606Z,99284.31
2023-02-18T03:20:31.656Z,99282.09
2023-02-18T03:23:01.535Z,99283.06
2023-02-18T03:25:29.440Z,99277.91
2023-02-18T03:28:00.136Z,99279.19
2023-02-18T03:30:35.094Z,99280.41
2023-02-18T03:33:06.266Z,99281.25
2023-02-18T03:35:32.893Z,99261.16
2023-02-18T03:38:38.078Z,99283.47
2023-02-18T03:41:05.565Z,99277.63
2023-02-18T03:43:32.212Z,99268.13
2023-02-18T03:45:59.121Z,99264.25
2023-02-18T03:48:26.670Z,99272.19
2023-02-18T03:50:53.243Z,99275.81
2023-02-18T03:53:22.454Z,99271.09
2023-02-18T03:55:48.985Z,99269.97
2023-02-18T03:58:15.491Z,99253.22
2023-02-18T04:00:41.957Z,99269.00
2023-02-18T04:03:08.519Z,99255.31
2023-02-18T04:05:35.096Z,99263.00
2023-02-18T04:08:01.589Z,99258.97
2023-02-18T04:10:28.146Z,99275.16
2023-02-18T04:12:54.732Z,99253.63
2023-02-18T04:15:23.306Z,99260.63
2023-02-18T04:17:50.016Z,99263.69
2023-02-18T04:20:16.766Z,99271.50
2023-02-18T04:22:43.354Z,99261.72
2023-02-18T04:25:09.939Z,99261.16
2023-02-18T04:27:36.474Z,99261.16
2023-02-18T04:30:04.627Z,99264.94
2023-02-18T04:32:31.281Z,99261.59
2023-02-18T04:34:57.769Z,99256.13
2023-02-18T04:37:27.418Z,99250.84
2023-02-18T04:39:56.927Z,99246.34
2023-02-18T04:42:27.019Z,99254.53
2023-02-18T04:44:56.753Z,99261.72
2023-02-18T04:47:25.956Z,99248.06
2023-02-18T04:49:52.452Z,99258.38
2023-02-18T04:52:19.549Z,99245.50
2023-02-18T04:54:46.247Z,99245.22
2023-02-18T04:57:13.017Z,99254.69
2023-02-18T04:59:39.620Z,99251.06
2023-02-18T05:02:06.246Z,99255.22
2023-02-18T05:04:32.833Z,99237.94
2023-02-18T05:06:59.352Z,99249.94
2023-02-18T05:09:28.771Z,99234.06
2023-02-18T05:11:58.048Z,99238.22
2023-02-18T05:14:26.695Z,99242.69
2023-02-18T05:16:53.230Z,99230.13
2023-02-18T05:19:19.730Z,99240.59
2023-02-18T05:21:46.265Z,99237.66
2023-02-18T05:24:12.811Z,99241.16
2023-02-18T05:26:39.336Z,99244.78
2023-02-18T05:29:06.131Z,99242.00
2023-02-18T05:31:32.779Z,99242.13
2023-02-18T05:33:59.383Z,99232.75
2023-02-18T05:36:28.711Z,99246.75
2023-02-18T05:38:58.183Z,99244.09
2023-02-18T05:41:24.784Z,99232.91
2023-02-18T05:44:09.830Z,99252.44
2023-02-18T05:46:36.433Z,99246.84
2023-02-18T05:49:02.989Z,99251.88
2023-02-18T05:51:29.604Z,99239.47
2023-02-18T05:53:58.635Z,99235.72
2023-02-18T05:56:25.208Z,99237.09
2023-02-18T05:58:51.708Z,99240.47
2023-02-18T06:01:18.278Z,99239.75
2023-02-18T06:03:44.795Z,99229.88
2023-02-18T06:06:11.747Z,99244.84
2023-02-18T06:08:38.867Z,99251.69
2023-02-18T06:11:05.413Z,99242.31
2023-02-18T06:13:32.036Z,99234.34
2023-02-18T06:16:01.728Z,99235.78
2023-02-18T06:18:32.340Z,99238.94
2023-02-18T06:21:02.019Z,99247.47
2023-02-18T06:23:32.999Z,99235.13
2023-02-18T06:25:59.764Z,99237.81
2023-02-18T06:28:28.682Z,99234.06
2023-02-18T06:31:00.527Z,99242.69
2023-02-18T06:33:30.750Z,99219.28
2023-02-18T06:36:03.717Z,99244.41
2023-02-18T06:38:30.634Z,99237.47
2023-02-18T06:41:02.107Z,99238.31
2023-02-18T06:43:29.738Z,99230.47
2023-02-18T06:46:01.306Z,99237.66
2023-02-18T06:48:31.099Z,99237.66
2023-02-18T06:51:00.704Z,99248.53
2023-02-18T06:53:30.253Z,99257.72
2023-02-18T06:56:01.601Z,99251.06
2023-02-18T06:58:31.292Z,99244.50
2023-02-18T07:01:01.779Z,99250.22
2023-02-18T07:03:31.480Z,99243.25
2023-02-18T07:06:01.593Z,99234.94
2023-02-18T07:08:33.274Z,99246.94
2023-02-18T07:11:00.008Z,99251.00
2023-02-18T07:13:29.360Z,99247.50
2023-02-18T07:15:58.288Z,99238.59
2023-02-18T07:18:24.815Z,99254.88
2023-02-18T07:20:51.525Z,99257.53
2023-02-18T07:23:18.002Z,99257.41
2023-02-18T07:25:44.708Z,99269.81
2023-02-18T07:28:11.316Z,99256.56
2023-02-18T07:30:37.889Z,99267.44
2023-02-18T07:33:04.452Z,99265.78
2023-02-18T07:35:31.103Z,99264.25
2023-02-18T07:38:03.202Z,99255.63
2023-02-18T07:40:30.153Z,99261.75
2023-02-18T07:43:01.221Z,99220.03
2023-02-18T07:45:30.815Z,99200.38
2023-02-18T07:48:00.872Z,99252.22
2023-02-18T07:50:28.834Z,99268.94
2023-02-18T07:52:56.497Z,99268.66
2023-02-18T07:55:23.093Z,99272.44
2023-02-18T07:58:00.999Z,99277.31
2023-02-18T08:00:30.962Z,99261.72
2023-02-18T08:02:58.745Z,99271.75
2023-02-18T08:05:25.303Z,99275.38
2023-02-18T08:07:51.832Z,99284.03
2023-02-18T08:10:18.369Z,99273.44
2023-02-18T08:12:44.877Z,99274.53
2023-02-18T08:15:11.463Z,99280.22
2023-02-18T08:17:38.000Z,99262.38
2023-02-18T08:20:05.483Z,99264.31
2023-02-18T08:22:32.006Z,99264.81
2023-02-18T08:24:58.850Z,99267.06
2023-02-18T08:27:28.255Z,99268.56
2023-02-18T08:29:58.244Z,99260.28
2023-02-18T08:32:30.706Z,99273.50
2023-02-18T08:35:03.429Z,99262.34
2023-02-18T08:37:30.092Z,99268.44
2023-02-18T08:40:16.802Z,99271.75
2023-02-18T08:42:43.298Z,99282.19
2023-02-18T08:45:09.813Z,99252.81
2023-02-18T08:48:16.783Z,99270.50
2023-02-18T08:50:28.563Z,99261.94
2023-02-18T08:52:59.387Z,99266.41
2023-02-18T08:55:28.512Z,99275.91
2023-02-18T08:57:55.036Z,99282.97
2023-02-18T09:00:22.074Z,99273.06
2023-02-18T09:02:48.795Z,99284.81
2023-02-18T09:05:15.913Z,99283.66
2023-02-18T09:07:42.765Z,99256.53
2023-02-18T09:10:10.397Z,99270.69
2023-02-18T09:12:42.827Z,99278.66
2023-02-18T09:15:09.660Z,99283.66
2023-02-18T09:17:36.239Z,99286.72
2023-02-18T09:20:04.192Z,99289.13
2023-02-18T09:22:32.931Z,99295.44
2023-02-18T09:24:59.640Z,99288.97
2023-02-18T09:27:28.538Z,99295.56
2023-02-18T09:29:55.200Z,99282.03
2023-02-18T09:32:33.712Z,99302.22
2023-02-18T09:35:01.919Z,99295.97
2023-02-18T09:37:32.128Z,99282.00
2023-02-18T09:40:00.286Z,99284.97
2023-02-18T09:42:33.430Z,99300.16
2023-02-18T09:45:06.959Z,99301.91
2023-02-18T09:47:36.240Z,99304.16
2023-02-18T09:50:19.258Z,99291.72
2023-02-18T09:52:46.220Z,99267.78
2023-02-18T09:55:33.678Z,99302.25
2023-02-18T09:58:04.733Z,99299.59
2023-02-18T10:00:41.205Z,99298.13
2023-02-18T10:03:20.660Z,99296.28
2023-02-18T10:06:02.789Z,99299.47
2023-02-18T10:08:35.439Z,99293.28
2023-02-18T10:11:02.514Z,99291.13
2023-02-18T10:13:33.131Z,99294.63
2023-02-18T10:16:00.332Z,99293.97
2023-02-18T10:21:15.268Z,99297.97
2023-02-18T10:23:50.684Z,99291.94
2023-02-18T10:26:18.481Z,99280.09
2023-02-18T10:28:46.077Z,99281.94
2023-02-18T10:31:20.558Z,99276.59
2023-02-18T10:33:58.587Z,99282.47
2023-02-18T10:36:27.921Z,99285.13
2023-02-18T10:39:20.874Z,99289.13
2023-02-18T10:42:05.372Z,99295.78
2023-02-18T10:44:59.743Z,99284.91
2023-02-18T10:47:32.164Z,99293.25
2023-02-18T10:50:28.727Z,99275.41
2023-02-18T10:52:58.961Z,99279.56
2023-02-18T10:55:41.022Z,99282.94
2023-02-18T10:58:36.651Z,99276.59
2023-02-18T11:01:08.610Z,99281.44
2023-02-18T11:03:50.272Z,99279.63
2023-02-18T11:06:40.817Z,99277.06
2023-02-18T11:09:20.913Z,99279.28
2023-02-18T11:11:50.633Z,99267.78
2023-02-18T11:14:43.393Z,99279.75
2023-02-18T11:17:17.615Z,99260.38
2023-02-18T11:19:53.207Z,99267.44
2023-02-18T11:22:23.451Z,99264.41
2023-02-18T11:24:58.366Z,99265.78
2023-02-18T11:27:30.237Z,99268.41
2023-02-18T11:30:05.317Z,99262.59
2023-02-18T11:32:35.940Z,99259.56
2023-02-18T11:35:04.993Z,99250.69
2023-02-18T11:37:35.650Z,99248.00
2023-02-18T11:40:02.363Z,99247.13
2023-02-18T11:42:29.239Z,99239.56
2023-02-18T11:44:58.967Z,99229.41
2023-02-18T11:47:35.780Z,99230.00
2023-02-18T11:50:08.156Z,99223.84
2023-02-18T11:52:42.393Z,99224.00
2023-02-18T11:55:17.076Z,99224.72
2023-02-18T11:57:51.085Z,99218.75
2023-02-18T12:00:44.734Z,99218.75
2023-02-18T12:03:40.588Z,99213.69
2023-02-18T12:06:35.785Z,99220.31
2023-02-18T12:09:35.250Z,99198.00
2023-02-18T12:12:06.922Z,99197.31
2023-02-18T12:14:33.561Z,99187.91
2023-02-18T12:17:15.877Z,99188.06
2023-02-18T12:20:10.573Z,99191.69
2023-02-18T12:22:44.229Z,99181.66
2023-02-18T12:25:24.731Z,99184.88
2023-02-18T12:28:00.616Z,99176.28
2023-02-18T12:30:43.937Z,99172.16
2023-02-18T12:33:22.387Z,99168.81
2023-02-18T12:35:52.409Z,99165.44
2023-02-18T12:38:30.463Z,99149.53
2023-02-18T12:41:34.003Z,99149.28
2023-02-18T12:44:19.066Z,99140.47
2023-02-18T12:46:45.838Z,99138.63
2023-02-18T12:49:48.008Z,99144.53
2023-02-18T12:52:59.575Z,99132.78
2023-02-18T12:56:12.708Z,99143.34
2023-02-18T12:59:14.589Z,99130.31
2023-02-18T13:02:18.316Z,99131.69
2023-02-18T13:04:50.835Z,99136.50
2023-02-18T13:07:32.488Z,99137.25
2023-02-18T13:10:09.823Z,99117.47
2023-02-18T13:13:03.348Z,99112.69
2023-02-18T13:15:34.369Z,99114.00
2023-02-18T13:18:10.677Z,99105.81
2023-02-18T13:20:42.460Z,99108.72
2023-02-18T13:23:18.719Z,99098.94
2023-02-18T13:25:46.805Z,99090.75
2023-02-18T13:28:31.764Z,99101.84
2023-02-18T13:31:06.858Z,99089.16
2023-02-18T13:33:36.470Z,99096.44
2023-02-18T13:36:11.833Z,99091.16
2023-02-18T13:39:09.174Z,99086.47
2023-02-18T13:41:41.823Z,99082.84
2023-02-18T13:44:29.382Z,99078.66
2023-02-18T13:46:58.946Z,99077.69
2023-02-18T13:49:32.769Z,99079.59
2023-02-18T13:52:04.660Z,99086.56
2023-02-18T13:54:41.945Z,99088.75
2023-02-18T13:57:21.837Z,99076.81
2023-02-18T13:59:58.178Z,99072.19
2023-02-18T14:02:27.648Z,99080.09
2023-02-18T14:05:09.423Z,99077.44
2023-02-18T14:07:36.197Z,99073.91
2023-02-18T14:10:36.428Z,99068.34
2023-02-18T14:13:39.789Z,99053.09
2023-02-18T14:16:07.265Z,99050.97
2023-02-18T14:18:39.768Z,99056.88
2023-02-18T14:21:12.152Z,99056.97
2023-02-18T14:23:39.053Z,99055.47
2023-02-18T14:26:06.605Z,99051.34
2023-02-18T14:29:00.203Z,99047.00
2023-02-18T14:31:47.561Z,99054.84
2023-02-18T14:34:29.331Z,99048.78
2023-02-18T14:37:09.927Z,99048.88
2023-02-18T14:39:50.291Z,99034.81
2023-02-18T14:42:25.796Z,99037.00
2023-02-18T14:45:04.519Z,99033.59
2023-02-18T14:47:49.922Z,99024.59
2023-02-18T14:50:19.683Z,99022.25
2023-02-18T14:52:49.899Z,99015.19
2023-02-18T14:55:24.793Z,99032.06
2023-02-18T14:57:56.275Z,99010.97
2023-02-18T15:00:25.585Z,99028.59
2023-02-18T15:02:55.149Z,99019.06
2023-02-18T15:05:29.690Z,99022.13
2023-02-18T15:08:00.560Z,99020.72
2023-02-18T15:11:07.424Z,99022.41
2023-02-18T15:13:44.233Z,99012.44
2023-02-18T15:16:37.093Z,99012.34
2023-02-18T15:19:13.624Z,99009.63
2023-02-18T15:21:43.828Z,99000.41
2023-02-18T15:24:21.014Z,99014.69
2023-02-18T15:26:51.868Z,99017.16
2023-02-18T15:29:24.696Z,99010.59
2023-02-18T15:31:51.965Z,99014.72
2023-02-18T15:34:39.207Z,99009.38
2023-02-18T15:37:11.772Z,99008.50
2023-02-18T15:39:41.383Z,99013.00
2023-02-18T15:42:16.951Z,99009.09
2023-02-18T15:44:49.203Z,98996.91
2023-02-18T15:47:17.560Z,98991.97
2023-02-18T15:49:55.699Z,99005.44
2023-02-18T15:52:38.743Z,99005.63
2023-02-18T15:55:15.376Z,99006.84
2023-02-18T15:57:42.454Z,99006.59
2023-02-18T16:00:28.494Z,98999.38
2023-02-18T16:03:04.734Z,99002.38
2023-02-18T16:05:34.812Z,99001.84
2023-02-18T16:08:07.232Z,99005.06
2023-02-18T16:10:36.927Z,99005.50
2023-02-18T16:13:06.749Z,99012.03
2023-02-18T16:15:43.362Z,99003.66
2023-02-18T16:18:29.619Z,99001.19
2023-02-18T16:21:01.405Z,98997.41
2023-02-18T16:23:42.318Z,98992.88
2023-02-18T16:26:17.984Z,99010.03
2023-02-18T16:28:45.717Z,98998.84
2023-02-18T16:31:12.434Z,98999.53
2023-02-18T16:33:39.094Z,98994.78
2023-02-18T16:36:16.363Z,98991.81
2023-02-18T16:38:45.162Z,98998.03
2023-02-18T16:41:13.500Z,98985.22
2023-02-18T16:43:40.706Z,99000.41
2023-02-18T16:46:19.155Z,99003.25
2023-02-18T16:48:49.579Z,98999.72
2023-02-18T16:51:32.927Z,98999.03
2023-02-18T16:53:59.639Z,99006.44
2023-02-18T16:56:32.244Z,99003.75
2023-02-18T16:58:58.961Z,98997.53
2023-02-18T17:01:32.978Z,99007.91
2023-02-18T17:04:01.067Z,99003.91
2023-02-18T17:06:28.139Z,99005.44
2023-02-18T17:08:54.994Z,99003.84
2023-02-18T17:11:25.955Z,98962.34
2023-02-18T17:13:54.398Z,99014.75
2023-02-18T17:16:21.742Z,99006.94
2023-02-18T17:18:48.334Z,99009.34
2023-02-18T17:21:16.703Z,99022.53
2023-02-18T17:23:43.777Z,99022.84
2023-02-18T17:26:18.616Z,99003.00
2023-02-18T17:28:45.340Z,99012.03
2023-02-18T17:31:26.103Z,99021.50
2023-02-18T17:33:54.941Z,99009.66
2023-02-18T17:36:21.656Z,99019.63
2023-02-18T17:38:49.425Z,99017.59
2023-02-18T17:41:16.113Z,99014.09
2023-02-18T17:43:42.980Z,99026.44
2023-02-18T17:46:14.918Z,99021.91
2023-02-18T17:48:42.574Z,99018.94
2023-02-18T17:51:26.267Z,99012.22
2023-02-18T17:53:52.977Z,99027.88
2023-02-18T17:56:19.701Z,99022.13
2023-02-18T17:58:48.979Z,99013.09
2023-02-18T18:01:17.161Z,99036.25
2023-02-18T18:03:44.303Z,99029.91
2023-02-18T18:06:16.996Z,99028.53
2023-02-18T18:08:49.893Z,98984.78
2023-02-18T18:11:25.269Z,99027.13
2023-02-18T18:13:55.786Z,99022.38
2023-02-18T18:16:22.749Z,99029.84
2023-02-18T18:18:49.406Z,99026.16
2023-02-18T18:21:36.388Z,99034.75
2023-02-18T18:24:04.290Z,99013.75
2023-02-18T18:26:41.021Z,99038.66
2023-02-18T18:29:12.516Z,99023.69
2023-02-18T18:31:39.490Z,99041.66
2023-02-18T18:34:09.799Z,99045.69
2023-02-18T18:36:39.177Z,99027.84
2023-02-18T18:39:07.660Z,99019.78
2023-02-18T18:41:37.621Z,99031.75
2023-02-18T18:44:07.300Z,99037.00
2023-02-18T18:46:42.234Z,99030.47
2023-02-18T18:49:08.820Z,99043.16
2023-02-18T18:51:38.178Z,99021.19
2023-02-18T18:54:07.179Z,99031.44
2023-02-18T18:56:33.873Z,99046.94
2023-02-18T18:59:00.526Z,99032.47
2023-02-18T19:01:28.853Z,99032.41
2023-02-18T19:03:55.799Z,99036.47
2023-02-18T19:06:22.438Z,98998.34
2023-02-18T19:08:49.049Z,99047.06
2023-02-18T19:11:16.801Z,99058.38
2023-02-18T19:13:49.193Z,99061.88
2023-02-18T19:16:29.940Z,99056.03
2023-02-18T19:18:56.724Z,99052.72
2023-02-18T19:21:23.267Z,99058.34
2023-02-18T19:23:49.815Z,99058.38
2023-02-18T19:26:16.979Z,99058.25
2023-02-18T19:28:44.500Z,99055.63
2023-02-18T19:31:11.633Z,99039.56
2023-02-18T19:33:39.349Z,99062.44
2023-02-18T19:36:10.798Z,99054.47
2023-02-18T19:38:40.297Z,99053.53
2023-02-18T19:41:10.335Z,99060.91
2023-02-18T19:43:41.466Z,99056.31
2023-02-18T19:46:13.494Z,99054.50
2023-02-18T19:48:40.557Z,99067.31
2023-02-18T19:51:10.917Z,99070.09
2023-02-18T19:53:38.072Z,99059.06
2023-02-18T19:56:09.785Z,99072.59
2023-02-18T19:58:41.927Z,99078.28
2023-02-18T20:01:16.069Z,99072.16
2023-02-18T20:03:43.313Z,99057.25
2023-02-18T20:06:20.356Z,99059.88
2023-02-18T20:08:47.157Z,99072.03
2023-02-18T20:11:13.745Z,99069.50
2023-02-18T20:13:40.306Z,99073.97
2023-02-18T20:16:10.645Z,99071.59
2023-02-18T20:18:37.984Z,99088.41
2023-02-18T20:21:06.531Z,99091.16
2023-02-18T20:23:39.176Z,99032.84
2023-02-18T20:26:11.667Z,99062.97
2023-02-18T20:28:41.373Z,99054.38
2023-02-18T20:31:12.905Z,99082.59
2023-02-18T20:33:42.275Z,99069.50
2023-02-18T20:36:09.788Z,99098.16
2023-02-18T20:38:39.520Z,99087.78
2023-02-18T20:41:14.534Z,99091.59
2023-02-18T20:43:41.378Z,99088.38
2023-02-18T20:46:12.365Z,99098.63
2023-02-18T20:48:39.431Z,99091.25
2023-02-18T20:51:14.723Z,99096.91
2023-02-18T20:53:42.665Z,99091.63
2023-02-18T20:56:09.807Z,99090.59
2023-02-18T20:58:42.234Z,99091.09
2023-02-18T21:01:12.155Z,99096.78
2023-02-18T21:03:39.446Z,99099.19
2023-02-18T21:06:11.793Z,99097.19
2023-02-18T21:08:40.513Z,99080.00
2023-02-18T21:11:11.131Z,99102.19
2023-02-18T21:13:39.189Z,99107.84
2023-02-18T21:16:09.333Z,99084.34
2023-02-18T21:18:37.762Z,99088.34
2023-02-18T21:21:09.310Z,99104.25
2023-02-18T21:23:38.113Z,99102.19
2023-02-18T21:26:09.565Z,99106.63
2023-02-18T21:28:37.043Z,99106.69
2023-02-18T21:31:04.322Z,99104.31
2023-02-18T21:33:31.025Z,99106.69
2023-02-18T21:36:01.225Z,99087.06
2023-02-18T21:38:27.727Z,99093.19
2023-02-18T21:40:54.220Z,99105.06
2023-02-18T21:43:20.695Z,99102.41
2023-02-18T21:45:47.216Z,99096.88
2023-02-18T21:48:32.325Z,99106.25
2023-02-18T21:51:02.335Z,99106.53
2023-02-18T21:53:28.831Z,99100.84
2023-02-18T21:56:03.267Z,99105.50
2023-02-18T21:58:30.238Z,99105.50
2023-02-18T22:00:58.167Z,99095.06
2023-02-18T22:03:24.837Z,99108.44
2023-02-18T22:05:51.417Z,99116.91
2023-02-18T22:08:18.031Z,99109.09
2023-02-18T22:10:44.539Z,99111.88
2023-02-18T22:13:11.033Z,99112.47
2023-02-18T22:15:42.067Z,99107.88
2023-02-18T22:18:12.470Z,99111.53
2023-02-18T22:20:40.545Z,99120.56
2023-02-18T22:23:08.041Z,99109.81
2023-02-18T22:25:35.336Z,99115.78
2023-02-18T22:28:01.805Z,99107.13
2023-02-18T22:30:28.314Z,99112.06
2023-02-18T22:32:54.825Z,99122.97
2023-02-18T22:35:21.350Z,99111.84
2023-02-18T22:37:47.889Z,99118.50
2023-02-18T22:40:14.429Z,99119.25
2023-02-18T22:42:40.905Z,99118.97
2023-02-18T22:45:12.068Z,99113.13
2023-02-18T22:47:42.819Z,99120.41
2023-02-18T22:50:13.881Z,99122.34
2023-02-18T22:52:42.151Z,99117.44
2023-02-18T22:55:11.045Z,99125.25
2023-02-18T22:57:37.548Z,99117.75
2023-02-18T23:00:10.018Z,99113.59
2023-02-18T23:02:36.983Z,99114.84
2023-02-18T23:05:03.519Z,99119.47
2023-02-18T23:07:30.342Z,99119.94
2023-02-18T23:09:56.836Z,99111.16
2023-02-18T23:12:24.196Z,99116.44
2023-02-18T23:14:50.697Z,99107.19
2023-02-18T23:17:17.780Z,99115.97
2023-02-18T23:19:44.365Z,99122.13
2023-02-18T23:22:19.521Z,99109.75
2023-02-18T23:24:47.116Z,99115.75
2023-02-18T23:27:15.198Z,99123.41
2023-02-18T23:29:44.737Z,99116.56
2023-02-18T23:32:13.380Z,99117.81
2023-02-18T23:34:40.169Z,99116.81
2023-02-18T23:37:06.776Z,99112.03
2023-02-18T23:39:34.036Z,99112.91
2023-02-18T23:42:00.838Z,99115.28
2023-02-18T23:44:28.205Z,99111.97
2023-02-18T23:46:54.888Z,99104.81
2023-02-18T23:49:26.121Z,99117.25
2023-02-18T23:51:54.892Z,99101.75
2023-02-18T23:54:21.838Z,99108.47
2023-02-18T23:56:48.531Z,99107.09
2023-02-18T23:59:15.416Z,99107.53
